Time;durP1;ratioP1;P1;durP2;ratioP2;P2;SDS_P1;SDS_P2;PMS_P1;PMS_P2;Temp;Humidity;BMP_temperature;BMP_pressure;BME280_temperature;BME280_humidity;BME280_pressure;Samples;Min_cycle;Max_cycle;Signal;HPM_P1;HPM_P2
2022/07/21 00:00:23;;;;;;;5.03;1.77;;;;;;;25.39;34.95;98930.53;4484793;32;20175;-71
2022/07/21 00:02:52;;;;;;;6.07;1.77;;;;;;;25.44;34.82;98928.81;4486152;31;20084;-71
2022/07/21 00:05:20;;;;;;;4.78;1.90;;;;;;;25.36;35.06;98929.16;4486052;31;20152;-71
2022/07/21 00:07:47;;;;;;;13.27;2.58;;;;;;;25.23;35.38;98923.94;4485771;32;20122;-71
2022/07/21 00:10:15;;;;;;;4.65;1.90;;;;;;;25.21;35.30;98932.22;4486043;32;20088;-71
2022/07/21 00:12:42;;;;;;;7.03;2.15;;;;;;;25.13;35.45;98933.37;4485968;31;20092;-71
2022/07/21 00:15:11;;;;;;;3.53;1.67;;;;;;;25.03;35.70;98932.28;4486077;31;20092;-71
2022/07/21 00:17:38;;;;;;;3.35;1.77;;;;;;;24.98;35.69;98928.41;4485968;32;20122;-71
2022/07/21 00:20:07;;;;;;;4.00;1.80;;;;;;;24.94;35.71;98929.09;4485825;31;20092;-71
2022/07/21 00:22:34;;;;;;;4.30;2.08;;;;;;;24.98;35.28;98931.09;4485730;31;20434;-71
2022/07/21 00:25:02;;;;;;;5.45;2.03;;;;;;;25.04;35.17;98931.22;4485907;31;20539;-71
2022/07/21 00:27:29;;;;;;;3.70;1.77;;;;;;;25.19;34.76;98928.94;4485178;31;20111;-71
2022/07/21 00:29:58;;;;;;;6.78;2.17;;;;;;;25.17;34.84;98939.09;4484981;31;20111;-71
2022/07/21 00:32:25;;;;;;;5.10;2.00;;;;;;;25.10;34.96;98936.50;4485031;31;20088;-71
2022/07/21 00:34:59;;;;;;;6.07;2.17;;;;;;;25.04;35.14;98931.22;4484516;31;20155;-71
2022/07/21 00:37:27;;;;;;;6.55;2.40;;;;;;;24.95;35.33;98926.19;4485035;32;20101;-71
2022/07/21 00:39:54;;;;;;;2.78;2.12;;;;;;;24.87;35.44;98936.41;4484831;31;20111;-71
2022/07/21 00:42:26;;;;;;;2.70;1.85;;;;;;;24.81;35.57;98930.06;4484850;31;20092;-71
2022/07/21 00:44:55;;;;;;;3.70;2.10;;;;;;;24.79;35.63;98937.53;4484888;31;20115;-71
2022/07/21 00:47:23;;;;;;;6.68;1.90;;;;;;;24.75;35.75;98926.44;4484764;31;20970;-71
2022/07/21 00:49:51;;;;;;;2.62;1.70;;;;;;;24.71;35.88;98935.16;4484637;31;20112;-71
2022/07/21 00:52:19;;;;;;;3.53;1.90;;;;;;;24.71;35.91;98936.00;4484902;31;20118;-71
2022/07/21 00:54:47;;;;;;;3.28;2.30;;;;;;;24.58;36.32;98934.28;4484804;31;20749;-71
2022/07/21 00:57:15;;;;;;;2.67;2.00;;;;;;;24.52;36.49;98927.09;4484739;31;20114;-71
2022/07/21 00:59:44;;;;;;;3.50;1.83;;;;;;;24.53;36.55;98930.62;4484570;31;20491;-71
2022/07/21 01:02:11;;;;;;;4.72;2.00;;;;;;;24.53;36.65;98925.25;4484809;31;20093;-71
2022/07/21 01:04:39;;;;;;;5.03;2.00;;;;;;;24.55;36.70;98925.84;4484979;31;20097;-71
2022/07/21 01:07:09;;;;;;;3.45;2.35;;;;;;;24.56;36.81;98924.81;4484840;31;20169;-71
2022/07/21 01:09:36;;;;;;;3.72;1.87;;;;;;;24.49;36.98;98927.56;4484879;32;20088;-71
2022/07/21 01:12:04;;;;;;;4.50;1.80;;;;;;;24.48;37.16;98931.25;4484613;31;20486;-71
2022/07/21 01:14:32;;;;;;;2.60;1.92;;;;;;;24.49;37.31;98929.44;4484733;31;20092;-71
2022/07/21 01:17:00;;;;;;;5.65;1.92;;;;;;;24.56;37.02;98936.34;4484531;31;20088;-71
2022/07/21 01:19:28;;;;;;;2.62;1.90;;;;;;;24.59;36.99;98935.91;4484206;31;20088;-71
2022/07/21 01:21:56;;;;;;;4.65;2.20;;;;;;;24.59;37.18;98929.75;4484620;31;20093;-71
2022/07/21 01:24:23;;;;;;;3.10;1.75;;;;;;;24.64;37.12;98929.06;4484520;31;20488;-70
2022/07/21 01:26:51;;;;;;;2.95;1.87;;;;;;;24.62;37.19;98919.41;4479371;32;111608;-70
2022/07/21 01:29:19;;;;;;;3.87;1.90;;;;;;;24.59;37.24;98922.53;4485542;32;20076;-71
2022/07/21 01:31:48;;;;;;;2.60;1.90;;;;;;;24.57;37.29;98919.22;4485622;31;20097;-71
2022/07/21 01:34:17;;;;;;;4.32;1.80;;;;;;;24.61;37.28;98925.78;4485451;31;20568;-71
2022/07/21 01:36:45;;;;;;;3.15;2.03;;;;;;;24.56;37.39;98920.25;4485355;32;20510;-71
2022/07/21 01:41:59;;;;;;;4.00;1.80;;;;;;;24.50;37.60;98925.69;4485407;32;20100;-71
2022/07/21 01:44:27;;;;;;;9.50;2.15;;;;;;;24.43;37.69;98917.75;4485573;31;20442;-71
2022/07/21 01:46:54;;;;;;;4.30;2.00;;;;;;;24.36;37.85;98922.34;4484186;31;20093;-71
2022/07/21 01:49:22;;;;;;;7.55;2.05;;;;;;;24.25;38.01;98916.72;4484892;32;20564;-71
2022/07/21 01:51:50;;;;;;;2.60;1.77;;;;;;;24.21;38.11;98918.19;4483980;32;20168;-71
2022/07/21 01:54:18;;;;;;;4.72;2.20;;;;;;;24.12;38.31;98924.88;4485224;31;20534;-71
2022/07/21 01:56:51;;;;;;;7.32;1.98;;;;;;;24.09;38.39;98925.31;4485247;31;20145;-71
2022/07/21 01:59:18;;;;;;;4.15;2.20;;;;;;;24.09;38.40;98922.66;4485121;31;20092;-71
2022/07/21 02:01:46;;;;;;;6.07;1.95;;;;;;;24.03;38.53;98934.25;4485201;31;20112;-71
2022/07/21 02:04:14;;;;;;;4.32;2.00;;;;;;;24.02;38.57;98929.91;4485241;31;20592;-70
2022/07/21 02:06:41;;;;;;;5.50;1.65;;;;;;;23.97;38.68;98935.94;4485081;31;20092;-71
2022/07/21 02:09:08;;;;;;;3.58;1.90;;;;;;;23.97;38.76;98935.09;4485160;31;20100;-71
2022/07/21 02:11:37;;;;;;;3.92;1.58;;;;;;;23.97;38.74;98941.28;4485006;32;20092;-71
2022/07/21 02:14:04;;;;;;;4.95;2.12;;;;;;;24.03;38.61;98927.00;4485078;31;20096;-71
2022/07/21 02:16:32;;;;;;;2.25;1.67;;;;;;;24.12;38.33;98937.41;4485141;31;20183;-71
2022/07/21 02:18:59;;;;;;;3.47;1.98;;;;;;;24.14;38.42;98936.16;4484832;32;20145;-71
2022/07/21 02:21:27;;;;;;;9.60;1.80;;;;;;;24.12;38.38;98935.59;4485108;31;20169;-71
2022/07/21 02:23:54;;;;;;;3.72;1.85;;;;;;;24.10;38.40;98934.97;4485086;31;20096;-71
2022/07/21 02:26:21;;;;;;;4.32;2.12;;;;;;;24.06;38.55;98939.16;4484921;31;20122;-71
2022/07/21 02:28:48;;;;;;;4.68;1.98;;;;;;;23.96;38.81;98942.31;4484817;31;20089;-71
2022/07/21 02:31:16;;;;;;;2.55;1.80;;;;;;;23.81;39.18;98942.63;4484836;31;20089;-71
2022/07/21 02:33:44;;;;;;;2.47;1.70;;;;;;;23.66;39.57;98940.25;4485020;32;20100;-71
2022/07/21 02:36:11;;;;;;;3.08;2.10;;;;;;;23.55;39.71;98944.47;4484914;31;20185;-71
2022/07/21 02:38:38;;;;;;;2.22;1.75;;;;;;;23.54;39.66;98940.19;4484816;31;20100;-71
2022/07/21 02:41:06;;;;;;;6.25;2.00;;;;;;;23.60;39.49;98946.47;4484883;31;20104;-71
2022/07/21 02:43:33;;;;;;;4.10;2.10;;;;;;;23.62;39.53;98938.25;4484791;31;20165;-71
2022/07/21 02:46:00;;;;;;;8.23;2.17;;;;;;;23.55;39.60;98932.97;4483521;32;20096;-71
2022/07/21 02:48:27;;;;;;;2.10;1.90;;;;;;;23.54;39.69;98929.47;4484522;32;20096;-71
2022/07/21 02:50:55;;;;;;;3.05;1.83;;;;;;;23.56;39.52;98940.75;4484603;32;20118;-71
2022/07/21 02:53:23;;;;;;;4.45;1.87;;;;;;;23.55;39.57;98938.31;4484936;31;20118;-71
2022/07/21 02:55:52;;;;;;;9.18;2.10;;;;;;;23.53;39.67;98941.19;4484669;32;20092;-71
2022/07/21 02:58:20;;;;;;;2.40;1.85;;;;;;;23.49;39.72;98940.00;4484519;31;20508;-71
2022/07/21 03:00:53;;;;;;;4.03;1.77;;;;;;;23.42;39.83;98936.53;4484539;31;20096;-71
2022/07/21 03:03:23;;;;;;;2.10;1.55;;;;;;;23.39;39.85;98940.47;4484954;31;20114;-71
2022/07/21 03:05:51;;;;;;;3.45;1.65;;;;;;;23.39;39.75;98935.13;4484513;31;20091;-71
2022/07/21 03:08:19;;;;;;;4.15;1.90;;;;;;;23.32;39.78;98945.06;4484555;31;20092;-71
2022/07/21 03:10:46;;;;;;;4.12;1.95;;;;;;;23.34;39.75;98948.31;4484374;31;20119;-71
2022/07/21 03:13:13;;;;;;;3.35;2.10;;;;;;;23.32;39.80;98944.25;4484652;31;20080;-71
2022/07/21 03:15:41;;;;;;;2.67;1.85;;;;;;;23.33;39.83;98945.84;4484424;32;20096;-71
2022/07/21 03:18:08;;;;;;;3.80;1.58;;;;;;;23.21;39.91;98943.06;4484274;31;20092;-71
2022/07/21 03:20:37;;;;;;;4.15;1.85;;;;;;;23.27;39.84;98942.22;4484536;31;20154;-71
2022/07/21 03:23:04;;;;;;;5.25;1.77;;;;;;;23.26;39.86;98950.44;4484457;31;20119;-71
2022/07/21 03:25:32;;;;;;;4.25;1.92;;;;;;;23.23;40.00;98942.88;4484342;31;20172;-71
2022/07/21 03:27:59;;;;;;;8.35;2.30;;;;;;;23.23;39.96;98938.31;4484091;31;20080;-71
2022/07/21 03:30:28;;;;;;;3.40;1.90;;;;;;;23.25;39.84;98941.59;4484311;31;20398;-71
2022/07/21 03:32:56;;;;;;;5.35;2.30;;;;;;;23.26;39.78;98945.91;4484231;31;20089;-71
2022/07/21 03:35:23;;;;;;;3.37;2.10;;;;;;;23.25;39.95;98938.09;4484251;31;20427;-71
2022/07/21 03:37:53;;;;;;;2.78;2.30;;;;;;;23.21;40.05;98941.22;4484502;31;20413;-71
2022/07/21 03:40:23;;;;;;;6.65;2.17;;;;;;;23.29;39.87;98953.50;4484138;32;20165;-71
2022/07/21 03:42:53;;;;;;;4.15;2.50;;;;;;;23.27;39.99;98942.22;4484365;31;20099;-71
2022/07/21 03:45:21;;;;;;;5.78;2.37;;;;;;;23.25;40.15;98943.47;4484067;31;20088;-71
2022/07/21 03:47:48;;;;;;;2.53;2.22;;;;;;;23.30;40.23;98946.28;4484022;31;20404;-71
2022/07/21 03:50:18;;;;;;;6.60;2.67;;;;;;;23.31;40.30;98947.94;4483711;31;20162;-71
2022/07/21 03:52:46;;;;;;;3.72;2.55;;;;;;;23.35;40.34;98949.16;4483961;32;20557;-71
2022/07/21 03:55:18;;;;;;;11.38;2.30;;;;;;;23.40;40.19;98949.31;4483880;31;20085;-71
2022/07/21 03:57:48;;;;;;;5.32;2.15;;;;;;;23.42;40.33;98943.75;4483999;31;20085;-71
2022/07/21 04:00:19;;;;;;;3.85;2.20;;;;;;;23.50;39.97;98949.66;4483832;31;20101;-71
2022/07/21 04:02:47;;;;;;;5.12;2.42;;;;;;;23.67;39.86;98951.81;4483927;32;20478;-71
2022/07/21 04:05:15;;;;;;;7.68;3.00;;;;;;;23.76;39.79;98958.50;4483707;31;20111;-71
2022/07/21 04:07:44;;;;;;;5.10;2.47;;;;;;;23.93;39.47;98956.13;4483671;31;20101;-71
2022/07/21 04:10:14;;;;;;;5.30;2.53;;;;;;;24.08;39.09;98955.78;4484087;32;20131;-71
2022/07/21 04:12:41;;;;;;;7.93;2.22;;;;;;;24.16;39.32;98960.84;4486007;31;20442;-71
2022/07/21 04:15:09;;;;;;;5.35;2.45;;;;;;;24.23;39.12;98950.91;4485961;31;20115;-71
2022/07/21 04:17:38;;;;;;;7.47;2.35;;;;;;;24.32;39.04;98959.47;4484600;32;20084;-71
2022/07/21 04:20:06;;;;;;;4.00;2.30;;;;;;;24.41;38.70;98951.97;4485885;31;20119;-71
2022/07/21 04:22:34;;;;;;;8.80;2.55;;;;;;;24.50;38.91;98955.13;4486157;31;20164;-71
2022/07/21 04:25:04;;;;;;;8.32;2.37;;;;;;;24.59;38.87;98959.22;4486071;31;20084;-71
2022/07/21 04:27:31;;;;;;;34.42;4.80;;;;;;;24.71;38.61;98957.41;4485661;31;20148;-71
2022/07/21 04:29:58;;;;;;;9.05;2.87;;;;;;;24.85;38.53;98952.72;4485953;31;20088;-71
2022/07/21 04:32:26;;;;;;;5.12;2.62;;;;;;;24.94;38.23;98958.59;4485863;31;20092;-71
2022/07/21 04:34:53;;;;;;;4.57;2.47;;;;;;;25.07;38.15;98965.63;4485937;31;20518;-71
2022/07/21 04:37:21;;;;;;;2.90;2.20;;;;;;;25.12;38.07;98955.84;4485887;32;20491;-71
2022/07/21 04:39:49;;;;;;;10.70;2.65;;;;;;;25.18;37.99;98961.34;4485690;32;20085;-71
2022/07/21 04:42:19;;;;;;;5.43;2.67;;;;;;;25.29;38.11;98966.78;4485773;31;20096;-71
2022/07/21 04:44:47;;;;;;;4.87;2.70;;;;;;;25.43;37.54;98966.59;4484476;32;20601;-71
2022/07/21 04:47:15;;;;;;;15.90;3.17;;;;;;;25.60;37.30;98964.87;4485691;31;20093;-71
2022/07/21 04:49:42;;;;;;;6.60;2.70;;;;;;;25.70;37.11;98964.31;4485423;31;20899;-71
2022/07/21 04:52:09;;;;;;;6.00;2.72;;;;;;;25.78;37.21;98965.84;4485631;31;20122;-71
2022/07/21 04:54:37;;;;;;;9.20;3.03;;;;;;;25.90;37.02;98969.34;4485789;32;20100;-71
2022/07/21 04:57:05;;;;;;;4.25;2.65;;;;;;;26.08;36.79;98975.69;4485640;31;20170;-71
2022/07/21 04:59:34;;;;;;;6.95;3.10;;;;;;;26.22;36.36;98969.03;4485496;31;20727;-71
2022/07/21 05:02:03;;;;;;;4.68;2.83;;;;;;;26.30;36.36;98971.37;4485570;32;20096;-71
2022/07/21 05:04:30;;;;;;;8.48;3.08;;;;;;;26.53;35.90;98975.06;4485670;31;20118;-71
2022/07/21 05:06:57;;;;;;;7.03;2.87;;;;;;;26.61;35.94;98979.25;4485737;31;20100;-71
2022/07/21 05:09:25;;;;;;;10.80;3.42;;;;;;;26.73;36.03;98974.72;4485746;31;20096;-71
2022/07/21 05:11:52;;;;;;;6.10;2.90;;;;;;;26.90;35.76;98964.00;4485563;31;20157;-71
2022/07/21 05:14:19;;;;;;;6.55;3.00;;;;;;;26.84;35.81;98973.03;4485736;31;20088;-71
2022/07/21 05:16:46;;;;;;;8.98;3.50;;;;;;;26.94;35.62;98975.94;4485386;32;20202;-71
2022/07/21 05:19:13;;;;;;;4.78;3.33;;;;;;;27.11;35.63;98972.47;4485313;32;20080;-71
2022/07/21 05:21:40;;;;;;;7.70;3.10;;;;;;;27.25;35.26;98979.19;4484455;32;20446;-71
2022/07/21 05:24:09;;;;;;;7.43;3.30;;;;;;;27.31;34.88;98966.66;4485286;31;20084;-71
2022/07/21 05:26:36;;;;;;;10.43;3.40;;;;;;;27.37;35.23;98966.50;4485299;31;20500;-71
2022/07/21 05:29:03;;;;;;;6.65;3.47;;;;;;;27.40;35.24;98973.28;4485343;31;20115;-71
2022/07/21 05:31:30;;;;;;;5.57;3.28;;;;;;;27.46;35.26;98983.09;4485469;31;20157;-71
2022/07/21 05:33:58;;;;;;;6.65;3.55;;;;;;;27.41;35.31;98986.50;4485695;32;20119;-71
2022/07/21 05:36:25;;;;;;;8.50;3.67;;;;;;;27.65;34.97;98986.38;4483939;32;20157;-71
2022/07/21 05:38:52;;;;;;;9.23;3.70;;;;;;;27.80;34.73;98991.22;4485386;32;20124;-71
2022/07/21 05:41:21;;;;;;;4.85;3.33;;;;;;;27.76;34.73;98993.56;4485553;31;20160;-71
2022/07/21 05:43:48;;;;;;;6.22;3.55;;;;;;;27.83;34.62;98998.78;4483980;32;20088;-71
2022/07/21 05:46:16;;;;;;;5.90;3.42;;;;;;;27.92;34.56;98999.19;4485444;31;20088;-71
2022/07/21 05:48:43;;;;;;;6.53;3.60;;;;;;;27.97;34.90;99004.69;4484977;31;20100;-71
2022/07/21 05:51:10;;;;;;;6.60;3.50;;;;;;;28.06;34.72;99005.09;4485359;32;20100;-71
2022/07/21 05:53:45;;;;;;;4.82;3.20;;;;;;;28.11;34.29;99003.28;4485152;31;20096;-71
2022/07/21 05:56:12;;;;;;;10.35;3.60;;;;;;;28.13;34.73;99001.19;4485379;31;20100;-71
2022/07/21 05:58:39;;;;;;;5.82;3.42;;;;;;;28.21;34.47;98993.75;4485125;31;20123;-71
2022/07/21 06:01:12;;;;;;;8.75;3.00;;;;;;;28.32;34.18;99000.91;4485379;32;20157;-71
2022/07/21 06:03:48;;;;;;;6.95;3.35;;;;;;;28.49;34.71;99003.53;4485138;31;20102;-71
2022/07/21 06:06:18;;;;;;;9.25;3.65;;;;;;;28.59;34.60;98998.31;4485271;31;20084;-71
2022/07/21 06:08:46;;;;;;;4.47;3.15;;;;;;;28.50;34.63;99000.59;4485136;31;20104;-71
2022/07/21 06:11:17;;;;;;;5.93;3.60;;;;;;;28.56;34.13;99000.69;4485153;31;20114;-71
2022/07/21 06:13:45;;;;;;;11.98;4.00;;;;;;;28.60;33.82;99001.81;4483811;32;20083;-71
2022/07/21 06:16:13;;;;;;;12.90;3.70;;;;;;;28.58;33.97;99001.25;4485260;31;20416;-71
2022/07/21 06:18:40;;;;;;;5.10;3.40;;;;;;;28.61;34.49;98998.06;4484624;31;20112;-71
2022/07/21 06:21:07;;;;;;;8.80;3.53;;;;;;;28.77;33.64;98999.91;4485139;31;20096;-71
2022/07/21 06:23:34;;;;;;;12.73;3.60;;;;;;;28.69;33.63;98997.63;4484878;31;20150;-71
2022/07/21 06:26:02;;;;;;;4.75;3.20;;;;;;;28.71;33.73;99000.91;4485261;31;20156;-71
2022/07/21 06:28:29;;;;;;;5.55;3.72;;;;;;;28.88;33.73;99005.44;4484983;31;20088;-71
2022/07/21 06:30:56;;;;;;;7.40;4.03;;;;;;;28.97;33.85;99009.31;4485144;32;20100;-71
2022/07/21 06:33:23;;;;;;;5.15;3.58;;;;;;;28.85;33.39;98995.94;4484488;32;20164;-71
2022/07/21 06:35:50;;;;;;;5.07;3.30;;;;;;;28.94;33.59;98997.13;4485029;31;20087;-71
2022/07/21 06:38:18;;;;;;;47.13;6.82;;;;;;;29.25;33.19;98988.59;4484981;32;20108;-71
2022/07/21 06:40:45;;;;;;;10.38;3.55;;;;;;;29.39;32.97;98997.91;4484988;31;20084;-71
2022/07/21 06:43:12;;;;;;;7.00;3.65;;;;;;;29.29;33.36;98989.72;4484662;32;20151;-71
2022/07/21 06:45:57;;;;;;;3.90;3.28;;;;;;;29.43;32.56;99000.91;4484909;31;20088;-71
2022/07/21 06:48:25;;;;;;;7.45;3.42;;;;;;;29.56;32.51;99003.19;4484779;31;20145;-71
2022/07/21 06:50:53;;;;;;;4.75;3.30;;;;;;;29.48;32.27;99004.47;4484716;31;20492;-71
2022/07/21 06:53:22;;;;;;;6.90;3.15;;;;;;;29.70;32.66;98995.47;4484865;32;20127;-71
2022/07/21 06:55:53;;;;;;;4.80;3.42;;;;;;;29.93;32.56;99010.53;4483493;32;20103;-71
2022/07/21 06:58:29;;;;;;;5.57;3.30;;;;;;;29.87;31.77;99007.00;4485070;32;20115;-71
2022/07/21 07:01:04;;;;;;;7.30;3.47;;;;;;;30.00;31.75;99007.63;4484877;31;20115;-71
2022/07/21 07:03:33;;;;;;;9.70;3.60;;;;;;;30.11;32.33;99012.03;4484570;32;20108;-71
2022/07/21 07:06:03;;;;;;;11.20;3.75;;;;;;;30.37;31.51;99009.47;4484780;31;20104;-71
2022/07/21 07:08:30;;;;;;;6.90;3.37;;;;;;;30.21;30.83;99012.09;4484448;31;20123;-71
2022/07/21 07:10:58;;;;;;;16.87;5.47;;;;;;;30.04;31.03;99016.84;4484579;32;20109;-71
2022/07/21 07:13:25;;;;;;;5.87;3.40;;;;;;;30.14;31.77;99008.00;4484535;31;20130;-71
2022/07/21 07:16:13;;;;;;;5.87;3.70;;;;;;;30.01;31.50;99012.78;4484359;32;20084;-71
2022/07/21 07:18:40;;;;;;;13.45;3.10;;;;;;;29.97;31.13;99010.84;4484094;31;20096;-71
2022/07/21 07:21:07;;;;;;;11.55;3.42;;;;;;;30.13;31.91;99009.91;4484468;31;20157;-71
2022/07/21 07:23:38;;;;;;;10.50;4.10;;;;;;;30.38;31.04;99005.72;4484301;32;20100;-71
2022/07/21 07:26:07;;;;;;;7.35;3.53;;;;;;;30.49;31.02;99012.03;4484255;32;20466;-71
2022/07/21 07:28:34;;;;;;;9.52;3.60;;;;;;;30.45;30.51;99006.34;4483963;31;20136;-71
2022/07/21 07:31:01;;;;;;;7.72;3.47;;;;;;;30.16;30.78;99005.84;4484337;31;20097;-71
2022/07/21 07:33:29;;;;;;;5.87;3.65;;;;;;;30.25;31.25;99012.38;4484035;31;20469;-71
2022/07/21 07:35:57;;;;;;;6.95;3.60;;;;;;;30.54;31.54;99010.16;4483197;32;20434;-71
2022/07/21 07:38:24;;;;;;;4.37;3.53;;;;;;;30.77;31.69;99008.91;4484081;31;20088;-71
2022/07/21 07:40:52;;;;;;;5.07;3.45;;;;;;;31.01;31.25;99007.66;4484172;31;20160;-71
2022/07/21 07:43:19;;;;;;;7.82;3.60;;;;;;;31.07;30.57;99009.31;4484018;31;20092;-71
2022/07/21 07:45:46;;;;;;;9.25;3.28;;;;;;;31.17;30.07;99000.41;4484890;31;20088;-71
2022/07/21 07:48:14;;;;;;;6.07;3.62;;;;;;;31.08;31.05;98998.22;4484788;32;20161;-71
2022/07/21 07:50:41;;;;;;;4.30;3.22;;;;;;;31.28;30.69;98993.91;4486061;31;20088;-71
2022/07/21 07:53:08;;;;;;;8.63;3.35;;;;;;;31.33;30.35;98993.94;4486004;32;20153;-71
2022/07/21 07:55:36;;;;;;;7.22;3.60;;;;;;;31.60;29.91;98991.03;4486208;32;20617;-71
2022/07/21 07:58:03;;;;;;;9.52;3.87;;;;;;;31.66;30.93;99000.78;4484633;32;20442;-71
2022/07/21 08:00:31;;;;;;;8.77;3.45;;;;;;;31.66;29.43;99000.78;4485734;31;20152;-71
2022/07/21 08:03:18;;;;;;;6.10;3.42;;;;;;;31.40;30.47;98999.09;4484398;31;20084;-71
2022/07/21 08:05:46;;;;;;;20.70;4.45;;;;;;;31.71;30.01;99001.87;4483842;32;20134;-71
2022/07/21 08:08:14;;;;;;;17.77;3.42;;;;;;;31.79;29.53;98999.41;4485806;31;20154;-71
2022/07/21 08:10:43;;;;;;;7.15;3.90;;;;;;;31.93;30.00;98993.44;4480338;32;20088;-71
2022/07/21 08:13:18;;;;;;;8.02;3.33;;;;;;;31.82;29.41;99000.78;4485963;31;20119;-71
2022/07/21 08:15:46;;;;;;;12.20;3.87;;;;;;;32.21;28.82;98997.50;4485505;31;20084;-71
2022/07/21 08:18:14;;;;;;;10.38;3.37;;;;;;;32.25;29.33;98998.59;4484086;31;20386;-71
2022/07/21 08:20:42;;;;;;;4.65;3.33;;;;;;;32.15;29.91;98999.41;4484750;31;20446;-71
2022/07/21 08:23:11;;;;;;;6.65;3.45;;;;;;;32.09;28.55;98989.63;4485203;32;20136;-71
2022/07/21 08:25:39;;;;;;;9.57;3.62;;;;;;;32.00;27.75;98991.28;4484304;31;20092;-71
2022/07/21 08:28:06;;;;;;;7.53;3.85;;;;;;;31.92;29.10;98989.94;4484706;31;20131;-71
2022/07/21 08:30:35;;;;;;;8.45;3.58;;;;;;;31.92;28.62;98986.41;4485189;32;20152;-71
2022/07/21 08:33:02;;;;;;;7.85;3.95;;;;;;;32.18;28.63;98990.72;4485592;31;20119;-71
2022/07/21 08:35:31;;;;;;;8.35;3.58;;;;;;;32.27;28.44;98984.75;4485365;31;20465;-71
2022/07/21 08:38:01;;;;;;;8.70;4.00;;;;;;;32.20;28.12;98982.31;4485568;31;20202;-71
2022/07/21 08:40:31;;;;;;;9.95;3.40;;;;;;;32.17;27.85;98985.59;4485807;31;20171;-71
2022/07/21 08:43:00;;;;;;;5.82;3.60;;;;;;;32.15;28.50;98980.44;4485850;31;20168;-71
2022/07/21 08:45:27;;;;;;;6.85;3.80;;;;;;;32.29;28.09;98988.81;4485683;31;20107;-71
2022/07/21 08:47:55;;;;;;;12.75;3.53;;;;;;;32.09;28.33;98978.78;4485529;31;20093;-71
2022/07/21 08:50:26;;;;;;;8.75;3.53;;;;;;;32.54;29.38;98979.78;4485669;32;20442;-71
2022/07/21 08:52:53;;;;;;;4.82;3.47;;;;;;;32.86;28.07;98969.66;4485753;31;20088;-71
2022/07/21 08:55:31;;;;;;;6.95;3.60;;;;;;;32.90;28.04;98982.38;4485858;31;20125;-71
2022/07/21 08:57:59;;;;;;;7.70;4.05;;;;;;;32.93;26.96;98974.75;4485428;31;20084;-71
2022/07/21 09:00:26;;;;;;;6.72;3.70;;;;;;;32.98;27.06;98972.81;4485641;31;20112;-71
2022/07/21 09:03:16;;;;;;;8.80;3.90;;;;;;;32.91;27.21;98969.59;4485627;31;20081;-71
2022/07/21 09:06:06;;;;;;;7.78;3.53;;;;;;;33.05;27.58;98970.63;4485693;31;20507;-71
2022/07/21 09:08:45;;;;;;;5.00;3.53;;;;;;;33.08;26.79;98975.50;4486045;31;20085;-71
2022/07/21 09:11:32;;;;;;;10.27;3.67;;;;;;;32.84;26.79;98969.94;4485756;32;20093;-71
2022/07/21 09:14:07;;;;;;;8.50;3.53;;;;;;;32.97;27.60;98968.47;4485430;31;20076;-71
2022/07/21 09:16:43;;;;;;;5.35;3.72;;;;;;;33.21;27.34;98978.69;4485578;31;20498;-71
2022/07/21 09:19:32;;;;;;;4.43;3.60;;;;;;;33.26;26.53;98970.50;4485203;31;20085;-71
2022/07/21 09:22:01;;;;;;;13.15;4.00;;;;;;;33.18;26.65;98971.09;4485791;31;20595;-71
2022/07/21 09:24:40;;;;;;;5.20;3.97;;;;;;;33.47;27.22;98964.94;4485336;31;20092;-71
2022/07/21 09:27:15;;;;;;;9.15;3.90;;;;;;;33.33;26.30;98962.84;4485454;31;20081;-71
2022/07/21 09:29:45;;;;;;;6.93;4.00;;;;;;;33.59;26.43;98965.37;4485361;31;20499;-71
2022/07/21 09:32:25;;;;;;;5.20;3.80;;;;;;;33.74;27.37;98967.19;4485750;31;20081;-71
2022/07/21 09:34:58;;;;;;;22.17;5.55;;;;;;;33.92;26.36;98960.22;4485368;31;20076;-72
2022/07/21 09:37:34;;;;;;;7.57;4.20;;;;;;;33.90;26.76;98959.69;4485529;32;20098;-71
2022/07/21 09:40:07;;;;;;;7.55;3.87;;;;;;;33.81;27.14;98954.09;4485246;31;20089;-71
2022/07/21 09:42:41;;;;;;;10.60;3.78;;;;;;;33.93;27.03;98950.94;4485563;31;20123;-71
2022/07/21 09:45:09;;;;;;;;;;;;;;;34.30;26.85;98952.22;4485930;31;20096;-71
2022/07/21 09:47:38;;;;;;;8.52;3.80;;;;;;;34.53;25.61;98956.03;4485629;31;19968;-71
2022/07/21 09:50:07;;;;;;;13.93;5.03;;;;;;;34.45;25.51;98938.44;4485017;31;20502;-71
2022/07/21 09:52:57;;;;;;;11.12;4.03;;;;;;;34.59;26.12;98948.63;4485544;31;20085;-71
2022/07/21 09:55:24;;;;;;;6.57;4.28;;;;;;;34.70;25.15;98939.22;4485196;31;20096;-71
2022/07/21 09:57:51;;;;;;;8.40;3.62;;;;;;;34.71;25.98;98940.84;4485538;31;20526;-71
2022/07/21 10:00:19;;;;;;;8.40;4.03;;;;;;;35.00;26.13;98939.91;4485153;31;20464;-71
2022/07/21 10:02:48;;;;;;;3.83;3.28;;;;;;;35.01;25.05;98941.53;4485284;31;20092;-71
2022/07/21 10:05:18;;;;;;;6.55;3.80;;;;;;;35.21;24.53;98934.97;4484989;31;20156;-71
2022/07/21 10:07:47;;;;;;;7.93;4.00;;;;;;;35.35;24.31;98932.34;4484512;31;20446;-71
2022/07/21 10:10:16;;;;;;;10.45;3.90;;;;;;;34.98;24.28;98936.69;4485132;32;20453;-71
2022/07/21 10:12:47;;;;;;;5.47;3.83;;;;;;;34.83;24.38;98927.63;4485267;31;20473;-71
2022/07/21 10:15:15;;;;;;;7.25;3.80;;;;;;;34.49;24.74;98927.78;4483914;32;20553;-71
2022/07/21 10:17:44;;;;;;;5.40;3.80;;;;;;;34.69;24.73;98924.00;4485084;31;20508;-71
2022/07/21 10:20:32;;;;;;;11.55;3.90;;;;;;;34.93;24.95;98926.69;4483565;32;20104;-72
2022/07/21 10:23:18;;;;;;;6.40;3.72;;;;;;;35.06;24.19;98929.78;4483895;32;20196;-71
2022/07/21 10:25:47;;;;;;;4.03;3.33;;;;;;;35.47;23.40;98918.25;4483896;32;20149;-71
2022/07/21 10:28:20;;;;;;;4.00;3.00;;;;;;;35.40;23.52;98913.19;4483929;32;20085;-71
2022/07/21 10:30:54;;;;;;;5.18;3.08;;;;;;;35.40;22.96;98913.19;4485029;31;20080;-72
2022/07/21 10:33:47;;;;;;;3.08;2.60;;;;;;;35.71;23.03;98913.44;4485198;31;20081;-71
2022/07/21 10:36:26;;;;;;;;;;;;;;;35.29;22.58;98922.62;4485406;31;20097;-72
2022/07/21 10:39:08;;;;;;;3.95;2.87;;;;;;;35.26;22.54;98904.94;4485500;31;19968;-72
2022/07/21 10:41:38;;;;;;;3.83;3.10;;;;;;;35.84;22.23;98906.44;4485130;31;20110;-71
2022/07/21 10:44:27;;;;;;;4.93;3.35;;;;;;;35.54;22.41;98903.13;4483832;32;20480;-71
2022/07/21 10:47:19;;;;;;;5.95;3.28;;;;;;;35.25;22.58;98897.06;4484952;31;20152;-71
2022/07/21 10:49:57;;;;;;;7.05;3.15;;;;;;;35.11;22.59;98897.84;4484547;31;20080;-71
2022/07/21 10:52:38;;;;;;;6.07;3.25;;;;;;;34.95;23.92;98896.44;4483686;32;20119;-71
2022/07/21 10:55:27;;;;;;;11.85;3.50;;;;;;;35.80;23.47;98894.50;4484875;31;20433;-71
2022/07/21 10:58:18;;;;;;;5.70;2.95;;;;;;;36.23;21.44;98896.97;4484816;31;20505;-71
2022/07/21 11:00:46;;;;;;;5.00;2.67;;;;;;;36.43;21.68;98892.22;4474814;32;20097;-71
2022/07/21 11:03:26;;;;;;;5.40;2.97;;;;;;;36.27;20.69;98885.47;4469107;32;20089;-71
2022/07/21 11:06:06;;;;;;;2.87;2.50;;;;;;;36.06;20.86;98883.13;4478379;32;20454;-72
2022/07/21 11:08:43;;;;;;;4.22;2.40;;;;;;;35.72;21.31;98876.91;4484685;31;20088;-71
2022/07/21 11:11:16;;;;;;;6.78;2.87;;;;;;;35.36;21.54;98882.19;4484717;31;20873;-71
2022/07/21 11:14:13;;;;;;;5.37;2.50;;;;;;;35.48;21.58;98879.00;4484672;31;20355;-71
2022/07/21 11:16:49;;;;;;;4.65;2.70;;;;;;;35.63;21.07;98876.00;4484549;31;20499;-72
2022/07/21 11:19:39;;;;;;;3.65;2.58;;;;;;;35.42;21.35;98875.56;4484533;31;20450;-71
2022/07/21 11:22:09;;;;;;;5.03;2.75;;;;;;;35.58;21.67;98878.81;4486568;31;20103;-71
2022/07/21 11:24:36;;;;;;;6.07;3.00;;;;;;;35.84;21.07;98873.72;4486188;31;20085;-71
2022/07/21 11:27:09;;;;;;;6.25;2.70;;;;;;;36.19;20.78;98874.13;4486246;31;20084;-71
2022/07/21 11:29:39;;;;;;;6.12;3.00;;;;;;;36.15;20.70;98873.09;4486306;32;20104;-72
2022/07/21 11:32:07;;;;;;;6.93;2.78;;;;;;;36.54;20.50;98863.56;4486330;31;20088;-71
2022/07/21 11:34:47;;;;;;;13.85;2.50;;;;;;;36.44;20.35;98869.25;4486301;32;20089;-71
2022/07/21 11:37:27;;;;;;;7.55;2.75;;;;;;;36.22;20.36;98862.59;4486314;32;20789;-71
2022/07/21 11:40:18;;;;;;;6.55;2.33;;;;;;;36.03;20.40;98853.72;4486374;31;20552;-71
2022/07/21 11:42:50;;;;;;;5.10;2.70;;;;;;;35.80;20.87;98850.91;4486289;31;20084;-72
2022/07/21 11:45:17;;;;;;;5.80;2.65;;;;;;;36.21;19.93;98850.06;4486355;31;20119;-71
2022/07/21 11:47:48;;;;;;;8.73;2.22;;;;;;;36.18;19.66;98852.59;4486292;31;20160;-71
2022/07/21 11:50:19;;;;;;;4.62;2.72;;;;;;;36.35;19.90;98843.81;4485962;31;20115;-72